Race Results for
Tour Del Sol
St. George, UT
(Event Information)
Criterium on 03/31/2012

Note: Ranking points are NOT upgrade points. An explanation of ranking points can be found here.


Men - Master Cat 3/4 - 35-99

 Place Points NameCity, StateTime USAC #BibTeam
1535.28Paul BRACKEN (1 - Cat5)   Saint George, UT0:36:15 292088  389 Team Red Rock
2536.68Colt ALBRECHT (2 - Cat5)   Saint George, UT0:36:15 348878  358 Team Red Rock
3538.08Greg PETERSEN (1 - Cat3)   Salt Lake City, UT0:36:17 294175  370 Sonora Grill/Bicycle Center
4539.48Bo PITKIN (1 - Cat4)   Park City, UT0:36:17 201749  352 COTBR
5540.88Dave SWENSEN (2 - Cat3)   Riverton, UT0:36:17 311872  360 Infinite Cycles
6542.28Jared ROYER   Santa Clara, UT0:36:17 313066  375 Team Red Rock
7543.68Nathan BARNES (3 - Cat3)   Herriman, UT0:36:17 289318  386 Infinite Cycles
8545.08Jeff MABRY (2 - Cat4)   Henderson, NV0:36:17 188386  362 Mandalay Bay/McGhies
9546.48Keith EDMISTON (3 - Cat4)   Las Vegas, NV0:36:17 272049  357 HarmonyHomes.com Cycling
10547.88Sean HAWES (3 - Cat5)   Saint George, UT0:36:17 313384  399 Team Red Rock
11549.28Guy ROUNDY (4 - Cat3)   West Jordan, UT0:36:17 51897  371 CA Pools/CFS Mortgage
12550.68Dustin DUNN (4 - Cat4)   Las Vegas, NV0:36:17 305812  393 Mandalay Bay/McGhies
13552.08Eric HONE (4 - Cat5)   Henderson, NV0:36:22 325402  365 Team 515 Racing
14553.48Bruce BALCH (1 - Cat2)   Las Vegas, NV0:36:22 2373  350 Mandalay Bay/McGhies
15554.88Michael KRACHT (5 - Cat3)   Park City, UT0:36:22 271396  385 COTBR
16556.28Mark GREENBERG (5 - Cat4)   Boulder City, NV0:36:22 53476  367 CA Pools/CFS Mortgage
17557.68Doug ROCK   Newharmony, UT0:36:25 30252  363 Team Red Rock
18559.08Marc REISMAN (6 - Cat4)   Las Vegas, NV0:36:28 43610  383 Team Las Vegas Cyclery
19560.48Justin KOYLE (7 - Cat4)   Wanship, UT0:36:31 311187  351 Skull Candy/JSA Architects
20561.88Patrick PUTT (8 - Cat4)   Park City, UT0:36:32 225096  359 Cole Sport
21563.28Troy GORMAN (9 - Cat4)   Salt Lake City, UT0:36:40 315166  368 Sonora Grill/Bicycle Center
22564.68Dave SELLERS (10 - Cat4)   Salt Lake City, UT0:36:40 210155  384 Team Plan7
23566.08Brett BALL (11 - Cat4)   Las Vegas, NV0:36:48 272539  354 Mandalay Bay/McGhies
24567.48Robin BROWN (5 - Cat5)   Henderson, NV0:37:31 190078  355 Team Las Vegas Cyclery
25568.88Matthew PAYNE (12 - Cat4)   Cedar Hills, UT0:37:41 203508  388 Domo Cycling
26570.28John WARD (13 - Cat4)   North Ogden, UT0:37:41 267584  379 Simply Mac p/b Bountiful Bicycle
27571.68Kevin BOYCE (14 - Cat4)   Las Vegas, NV0:37:41 284178  381 Team Las Vegas Cyclery
28573.08Ronnie BOUTTE (15 - Cat4)   Layton, UT0:37:41 308066  382 COTBR
29574.48Darryl SIGMAN (16 - Cat4)   Highlands Ranch, CO0:37:41 310945  361 Giant Cycling World p/b RMSS
30575.88Dennis KAWAMURA (6 - Cat5)   Blackfootkfoot, ID0:37:48 347230  380 I.C.E./Idaho Kidney Institute
31577.28Jason HAFEN   Saint George, UT0:37:56 313386  376 Team Red Rock
32578.68Jeff FLICK (17 - Cat4)   Salt Lake City, UT0:38:06 99231  378 RMCC/Cyclesmith
33580.08Chris COLGAN (18 - Cat4)   Salt Lake City, UT0:39:35 127202  356 RMCC/Cyclesmith
34581.48Adam ROTH (7 - Cat5)   Las Vegas, NV0:39:55 365306  373 Team Las Vegas Cyclery
35582.88James ADINARO (19 - Cat4)   Salt Lake City, UT0:39:55 295234  374 Porcupine Cycling
36584.28Ed CLOUSE (20 - Cat4)   Park City, UT0:39:59 247727  364 Cole Sport
37585.68Ethan FISHER (21 - Cat4)   Salt Lake City, UT0:41:00 206076  366 Sonora Grill/Bicycle Center
38587.08Patrick MORTON (22 - Cat4)   Park City, UT0:41:11 224051  387 Revolution Cafe Rio
39588.48Michael CONTI   Park City, UT0:41:32 266003  392 
40589.88Tom CHASE (8 - Cat5)   Kaysville, UT0:42:18 376341  391 CA Pools/CFS Mortgage

Men - Master Cat 1/2/3 - 40-99

 Place Points NameCity, StateTime USAC #BibTeam
1200.71James PEARCE (1 - Cat2)   Las Vegas, NV0:37:51 254706  301 Allegiant Airlines
2212.88Ken HALL (1 - Cat3)   Las Vegas, NV0:37:51 127657  331 Allegiant Airlines
3225.05Mark SCHAEFER (2 - Cat2)   Ogden, UT0:38:04 66592  307 HarmonyHomes.com Cycling
4237.22Louie AMELBURU (1 - Cat1)   Las Vegas, NV0:38:13 65992  320 HarmonyHomes.com Cycling
5249.39Mauricio PRADO (2 - Cat1)   Las Vegas, NV0:38:13 28603  310 Allegiant Airlines
6261.56Zan TREASURE (3 - Cat2)   Ogden, UT0:38:13 143866  332 Bountiful Mazda Cycling Team
7273.73Michael ANDERSON (3 - Cat1)   Las Vegas, NV0:38:16 110224  308 Allegiant Airlines
8285.90Anthony LUNA (4 - Cat2)   Las Vegas, NV0:38:16 45619  302 Team Penta
9298.07Stephen FERRETTI (5 - Cat2)   Crestline, CA0:38:16 193308  328 Allegiant Airlines
10310.24Bob MCCALL (6 - Cat2)   Las Vegas , NV0:38:22 53621  306 Allegiant Airlines
11322.41Scott ALLEN (7 - Cat2)   Sandy, UT0:38:24 131004  327 Canyon Bicycles
12334.58Jeff STRONG (2 - Cat3)   Las Vegas, NV0:38:30 255365  315 HarmonyHomes.com Cycling
13346.75Gregory CASALS (8 - Cat2)   Boulder, CO0:38:38 224547  333 Red Ant Racing
14358.92Jeff URE (9 - Cat2)   Park City, UT0:38:38 36248  314 Bountiful Mazda Cycling Team
15371.09Jamie LONGE (3 - Cat3)   Holladay, UT0:38:42 202145  317 Canyon Bicycles
16383.26Rick BLACK (4 - Cat3)   Alpine, UT0:38:42 210661  323 Team Plan7
17395.43Andre' GONZALEZ (10 - Cat2)   Lehi, UT0:38:42 91576  303 FFKR Architects Racing
18407.60Jimmy ROBBINS (11 - Cat2)   Carlsbad, CA0:39:08 30054  318 HarmonyHomes.com Cycling
19419.77Scott PATTEN (12 - Cat2)   Park City, UT0:39:22 146288  324 Ski Utah - Marketstar
20431.94Matthew HEITMANN (5 - Cat3)   Park City, UT0:39:35 149133  300 Competitive Cyclists
21444.11Todd TAFT (6 - Cat3)   Salt Lake City, UT0:39:39 207596  329 Ski Utah - Marketstar
22456.28Shane DUNLEAVY (7 - Cat3)   Park City, UT0:39:39 253994  325 Ski Utah - Marketstar
23468.45Donald ARMSTRONG (13 - Cat2)   Ogden, UT0:39:39 1910  330 HarmonyHomes.com Cycling
24480.62Mark LARSEN (14 - Cat2)   St George, UT0:40:54 54675  321 Team Red Rock
25492.79Raymond COOK (8 - Cat3)   Las Vegas, NV0:40:54 286418  322 Allegiant Airlines
26504.96James FERGUSON (9 - Cat3)   Ogden, UT0:40:54 200321  312 Bountiful Mazda Cycling Team
27517.13Dan KADRMAS (10 - Cat3)   North Salt Lake, UT0:40:54 170977  309 Bountiful Mazda Cycling Team
28529.30Mark TUCSNAK (15 - Cat2)   Pahrump, NV0:40:54 36036  304 
29541.47Scott KISER (16 - Cat2)   Cottonwoodheights, UT0:40:54 281191  326 Bountiful Mazda Cycling Team
30553.64Eric MARTIN (17 - Cat2)   St. George, UT0:41:19 266132  311 Canyon Bicycles
31565.81Daniel LEBERGER (11 - Cat3)   Las Vegas, NV0:42:45 88369  313 Shuffle Master - Penta
32577.98Jody HARRIS (18 - Cat2)   Pleasant View, UT0:43:31 177562  316 Ogden One
33590.15Kenneth BINGHAM (12 - Cat3)   Las Vegas, NV0:44:40 154752  305 HarmonyHomes.com Cycling
DNFKlaus GAAR (Cat2)   Henderson, NV 215157  319 Allegiant Airlines

Men - Pro/Cat 1/2

 Place Points NameCity, StateTime USAC #BibTeam
1247.18David HARWARD (1 - Cat1)   Salt Lake City, UT0:47:25 15338  Team Plan7
2260.10Joe WATERS (2 - Cat1)   Ogden, UT0:47:26 267821  19 Canyon Bicycles
3273.02Chase PINKHAM (1 - Pro)   Salt Lake City, UT0:47:26 251593  BISSELL Pro Cycling
4285.94Jacob STOCKING (3 - Cat1)   Salt Lake City, UT0:47:26 222652  Revolution Cafe Rio
5298.86Eric ELLIS (1 - Cat2)   Springville Ut0:47:26 296526  16 Ski Utah - Marketstar
6311.78Todd NEUMARKER (2 - Cat2)   Pleasant Grove, UT0:47:26 259988  Roosters Bikers Edge
7324.70Jason ASAY (3 - Cat2)   Orem, UT0:47:26 249740  25 Morinda Bioactive
8337.62Tyler RIEDESEL (4 - Cat1)   Salt Lake City, UT0:48:10 264518  Canyon Bicycles
9350.54Mike WILCOX (5 - Cat1)   Salt Lake City, UT0:48:26 78544  12 FFKR Architects Racing
10363.46Pete KUENNEMANN (6 - Cat1)   Salt Lake City, UT0:48:26 19955  10 FFKR Architects Racing
11376.38Nathan KING (2 - Pro)   Salt Lake City, UT0:48:27 317564  11 Competitive Cyclists
12389.30Bryce YOUNG (4 - Cat2)   North Ogden, UT0:48:27 274878  Canyon Bicycles
13402.22Kevin KOCH (5 - Cat2)   Grandjunction, CO0:48:33 281921  18 Bicycle Outfitters
14415.14Clint CARTER (6 - Cat2)   Salt Lake City, UT0:48:45 220916  24 FFKR Architects Racing
15428.06Cody HAROLDSEN (7 - Cat1)   Salt Lake City, UT0:48:50 230640  23 Ski Utah - Marketstar
16440.98Kevin NELSON (7 - Cat2)   Uintah, UT0:49:02 63711  17 Team Plan7
17453.90Spencer DEBRY (8 - Cat2)   Sandy, UT0:49:03 242242  Revolutio Cafe Rio
18466.82Michael BOOTH (8 - Cat1)   Salt Lake City, UT0:49:06 212282  13 Ski Utah - Marketstar
19479.74Cortlan BROWN (9 - Cat1)   Bountiful, UT0:49:13 262949  21 Ski Utah - Marketstar
20492.66Teal BUCHI   Salt Lake City, UT0:51:09 273772  FFKR Architects Racing
21505.58David Josh BROCKBANK (10 - Cat1)   Salt Lake City, UT0:51:20 277908  26 Canyon Bicycles
22518.50Mike SOHM (11 - Cat1)   Salt Lake City0:52:00 219095  Ski Utah - Marketstar
23531.42Cody ROHOVIT (9 - Cat2)   Slc, UT0:52:15 277951  20 FFKR Architects Racing
24544.34Mark DETERLINE (10 - Cat2)   Salt Lake City, UT0:55:12 43613  15 Team Plan7
25557.26Matt KIEL (11 - Cat2)   Indianapolis, IN1:02:10 274433  14 Canyon Bicycles

Men - Cat 3

 Place Points NameCity, StateTime USAC #BibTeam
1361.55Clinton MORTLEY   Ogden, UT0:39:05 223361  39 Simply Mac p/b Bountiful Bicycle
2368.27Zach BUTTERFIELD   South Jordan, UT0:39:12 181987  65 Canyon Bicycles
3374.99Mike PRATT   Draper, UT0:39:30 28629  52 Canyon Bicycles
4381.71Alex PRISTASH   Las Vegas, NV0:39:30 305506  30 HarmonyHomes.com Cycling
5388.43Isaiah JEREZ   Henderson, NV0:39:30 320404  49 Shuffle Master - Penta
6395.15Christopher PUTT   Parkcity, UT0:39:30 282625  32 Canyon Bicycles
7401.87Mike UNDERHILL   South Jordan Ut0:39:30 318632  61 Infinite Cycles
8408.59Hunter HUFFMAN   Park City, UT0:39:30 338664  41 Canyon Bicycles
9415.31Ryan ARNOLD   Las Vegas, NV0:39:30 306014  57 HarmonyHomes.com Cycling
10422.03Michael BLEVINS   Sandy, UT0:39:30 308631  46 Canyon Bicycles
11428.75Joseph TEYNOR   Denver, CO0:39:30 353060  51 Rocky Mountain Road Club
12435.47Matt LYONS   Denver, CO0:39:30 293046  53 University of Denver
13442.19Charles LUIB   Las Vegas, NV0:39:30 252688  48 Allegiant Airlines
14448.91Tyler MATSON   Sunset, UT0:39:30 292523  63 Simply Mac p/b Bountiful Bicycle
15455.63Ira SORENSEN   Herriman, UT0:39:30 318710  47 Infinite Cycles
16462.35David CARTER   Logan, UT0:39:30 293210  42 NordicTrack/Logan Race Club
17469.07Jeremy COLLINS   Farmington, UT0:39:30 131631  54 JTRCycling
18475.79Josh HICKMAN   Salt Lake City, UT0:39:30 248015  50 Sonora Grill/Bicycle Center
19482.51Perry HALL   Park City, UT0:39:30 206431  45 Sonora Grill/Bicycle Center
20489.23Brooks STEVENSON   Kaysville, UT0:39:30 245838  37 Sonora Grill/Bicycle Center
21495.95Zach TERRY   Sandy, UT0:39:30 245783  66 Sonora Grill/Bicycle Center
22502.67Bill GOWSKI   Salt Lake City, UT0:39:30 326152  34 Sonora Grill/Bicycle Center
23509.39Bonn TURKINGTON   Alpine, UT0:39:36 219425  35 Canyon Bicycles
24516.11Nic SELLS   Clearfield, UT0:39:36 295868  59 Team Plan7
25522.83Payton NISHIKAWA   Willard, UT0:39:36 26145  33 Chick-fil-a/Excelerator Sports
26529.55Michael TRUSSELL   West Jordan, UT0:39:40 298346  55 Salt Lake Community College
27536.27Simon PARSONS   Sandy, UT0:39:44 342340  60 Revolution Cafe Rio
28542.99Tyler SOUTHARD   Denver, CO0:39:59 296104  64 Sonora Grill/Bicycle Center
29549.71Ryan TANNER   Salt Lake City, UT0:40:18 298172  56 Needles Peak
30556.43Chris LUNDBERG   Denver, CO0:40:20 306843  40 RMCC/Cyclesmith
31563.15Ben TOWERY   Clinton, UT0:42:12 276103  62 Chick-fil-a/Excelerator Sports
32569.87Bruce BILODEAU   Sandy, UT0:44:28 215197  44 Canyon Bicycles-Draper
33576.59Cj KOZLOWSKI   Gillette, WY0:48:17 307652  38 Team Tumbleweeds
34583.31Nolan FINLAYSON   Riverton, UT0:48:17 291403  43 Team Dialogue
35590.03Shawn KINGREY   Pueblo, CO0:48:17 167284  58 Team Body Sync
DNFCristiano Pereira   West Valley City, UT 114691  31 Animal Liberation Racing

Men - Cat 4

 Place Points NameCity, StateTime USAC #BibTeam
1419.50Marshall EVANS   Las Vegas, NV0:42:37 269577  131 HarmonyHomes.com
2423.13Brian MADSEN   Eagle Mountain0:42:37 342608  157 Utah Valley University
3426.76Eric THOMPSON   Midvale, UT0:42:39 322070  116 FFKR Architects Racing
4430.39Colter HAMMER   Salt Lake City, UT0:42:39 345166  107 Team Dialogue
5434.02Noah GRASSI   Las Vegas, NV0:42:39 360114  135 Noah Grassi
6437.65Travis TUNG   Aurora, CO0:42:39 252262  149 Les Rois Cycling Club
7441.28Logan PHIPPEN   Ogden, UT0:42:39 265398  130 Ogden One
8444.91Eric BALOG   Wilson, WY0:42:39 332838  115 Hoback Sports / JHAF
9448.54Brian SMITH   South Jordan, UT0:42:39 272129  103 Infinite Cycles
10452.17Braden SHERWOOD   Queen Creek, AZ0:42:39 337534  105 Two Wheel Jones
11455.80Cyrus PEARO   Grand Junction, CO0:42:39 375247  109 
12459.43Ryan O'KEEFE   Las Vegas, NV0:42:39 293638  118 Allegiant Airlines
13463.06Gary HURST   Saltlakecity, UT0:42:39 299675  102 Animal Liberation Racing
14466.69Larry LUKE   Park City, UT0:42:39 248353  127 FFKR Architects Racing
15470.32Ethan FEDOR   Park City, UT0:42:39 282248  142 Cole Sport
16473.95Zach PETERSON   Bountiful, UT0:42:39 338098  156 KUHL - Rocky Mountain
17477.58Chad MICKELSON   Henderson, NV0:42:39 304065  106 Shuffle Master - Penta
18481.21Terry STEEVES   Henderson, NV0:42:39 357164  151 Les Rois Cycling Club
19484.84Sam TROP   Draper, UT0:42:39 263601  113 Revolution Cafe Rio
20488.47Justin PASQUALE   Las Vegas, NV0:42:39 348026  123 Les Rois Cycling Club
21492.10Tanner ROBISON   Logan, UT0:42:42 294567  141 Team Awesome
22495.73Justin GRIFFIN   Salt Lake City, UT0:42:50 293880  134 FFKR Architects Racing
23499.36Paul SCOTT   Belton, TX0:43:55 300698  140 Scott & White Community Cycling
24502.99Ryan FINLAYSON   Riverton, UT0:43:55 296771  153 Team Dialogue
25506.62Trent WIGNALL   Draper, UT0:44:15 294142  150 Team Dialogue
26510.25Steven KELTIE   Las Vegas, NV0:44:18 304702  145 Team Fluid Cycling
27513.88Mike ALLEC   Las Vegas, NV0:44:20 360129  133 Les Rois Cycling Club
28517.51John DAY   Henderson, NV0:44:20 308513  110 Shuffle Master - Penta
29521.14Jonathan LOZON   Floyds Knobs, IN0:44:23 291131  128 COTBR
30524.77Christopher RACE   Henderson, NV0:45:18 330716  108 Shuffle Master - Penta
31528.40Mike OBLAD   Taylorsville, UT0:45:23 26520  132 Dialog
32532.03Grayson GEARIN   Las Vegas, NV0:45:27 361193  112 Grayson Gearin
33535.66Kodey MYERS   Logan, UT0:46:04 340240  125 USU Cycling
34539.29Greg PETERSON   Salt Lake City, UT0:46:16 340012  120 
35542.92Chris JONES   Salt Lake City, UT0:46:26 313308  400 COTBR
36546.55Stephen HAAS   Lakewood, CO0:46:28 284765  138 Black Sheep Junior Cycling
37550.18Brandon BLACKWELL   Centerville, UT0:46:28 353576  100 Simply Mac p/b Bountiful Bicycle
38553.81Peter MEYERHOFER   Escondido, CA0:46:31 254123  139 Mandalay Bay/McGhies
39557.44Paul KUHN   Boulder City, NV0:46:31 304991  126 Shuffle Master - Penta
40561.07A.J. SIGMAN   Highlands Ranch, CO0:46:54 278243  111 Black Sheep Junior Cycling
41564.70Yashindir GOKUL   Las Vegas, NV0:46:54 255265  154 Les Rois Cycling Club
42568.33Eric TAYLOR   Iowa City, IA0:46:54 316210  137 Contender Bicycles
43571.96Jerry BERGOSH   Salt Lake City, UT0:46:54 246295  122 Jerry Bergosh
44575.59Nathan STEELE   Salt Lake City, UT0:47:14 309835  146 Animal Liberation Racing
45579.22Dylan TODD   Lasvegas, NV0:48:18 307324  114 Team Fluid Cycling
46582.85Jeffrey VALENCIA   Las Vegas, NV0:48:23 311808  124 Shuffle Master - Penta
47586.48Rick FINLAYSON   Highland, UT0:48:27 279124  101 Team Dialogue
48590.11Hoz TORO   Orem, UT0:48:35 310533  159 Team Dialogue
DNFAndrew VAN TASSELL   Slc, UT 271510  152 
DNFEric NEUHAUS   Henderson, NV 289276  148 Shuffle Master - Penta
DNFThomas BAKER   North Ogden, UT 294344  147 Simply Mac p/b Bountiful Bicycle
DNFChristopher PAULS   Lasvegas, NV 303219  136 Les Rois Cycling Club
DNFJake BERMAN   Denver, CO 309314  121 DU
DNFGrant PARRIS   Henderson, NV 140858  119 Shuffle Master - Penta
DNFPaul GRUBE   Henderson, NV 331962  117 Shuffle Master - Penta

Men - Cat 5

 Place Points NameCity, StateTime USAC #BibTeam
1540.00Don MCCLURE   Orem, UT0:29:01 371458  258 Infinite Cycles
2541.22Dennis RHODES   Henderson, NV0:29:07 338246  263 Team Las Vegas Cyclery
3542.44Tony JENSEN   Las Vegas, NV0:29:07 237928  291 Mandalay Bay/McGhies
4543.66David BRINTON   South Jordan, UT0:29:07 312045  262 Infinite Cycles
5544.88Brady KIESEL   Las Vegas, NV0:29:07 362393  253 Team Las Vegas Cyclery
6546.10Ty Neumann   St George, UT0:29:07 394297  295 
7547.32Chris TERRY   Springville, UT0:29:07 375718  296 Utah Valley University
8548.54Tom PACE   Herriman, UT0:29:07 299674  278 Infinite Cycles
9549.76James HUNTER   Spring Creek, NV0:29:07 247284  286 Elko Velo
10Steve OLSEN   0:29:07  290 Team Red Rock
11552.20Brandon FRY   Spanish Fork, UT0:29:07 287038  250 Infinite Cycles
12553.42Ivun SORENSEN   Highland, UT0:29:07 371651  266 Infinite Cycles
13554.64Jason SJO   Hurricane, UT0:29:07 374689  269 
14555.86Scott JOHNSTON   Herriman, UT0:29:07 295636  287 Infinite Cycles
15557.08Tony VU   Las Vegas, NV0:29:07 177190  255 CA Pools/CFS Mortgage
16558.30Julian PEREZ   Las Vegas0:29:07 361585  277 Mandalay Bay/McGhies
17559.52Trey O'NEAL   Salt Lake City, UT0:29:07 214725  293 Contender Bicycles
18560.74Jeff MITCHELL   Las Vegas, NV0:29:07 298516  271 CA Pools/CFS Mortgage
19561.96David BENSON   Fruit Heights, UT0:29:07 359054  264 Simply Mac p/b Bountiful Bicycle
20563.18Matt JASKOL   Las Vegas, NV0:29:07 339382  281 CA Pools/CFS Mortgage
21564.40Trent WATKINS   Midvale, UT0:29:14 370877  256 RMCC/Cyclesmith
22565.62James JI   Bountiful, UT0:29:14 357658  272 Bountiful Bicycle Racing
23566.84Jon MCBRIDE   Kaysville, UT0:29:16 358841  273 
24568.06Kevin OKeefe   Santa Clara0:29:33 323050  260 
25569.28Jon LARSEN   Riverton, UT0:30:40 366305  274 Infinite Cycles
26570.50Dustin OLENSLAGER   Las Vegas, NV0:30:48 358743  261 Team Fluid Cycling
27Ryan DUCKWORTH   0:30:48  294 
28572.94David HANSEN   Bryce, UT0:30:48 341782  259 NPS
29574.16Kyle ANDERSON   Sandy, UT0:30:48 365998  280 Revolution Cafe Rio
30Robert LUCKE   0:30:52  285 Montana Bike Hostel
31576.60Mason DANNER   Ely, NV0:30:52 376727  257 
32577.82William MCCOLLOCH   Salt Lake City, UT0:31:12 356684  252 Bountiful Bicycle Racing
33579.04Joe HICKS   Las Vegas, NV0:31:27 375609  275 Mandalay Bay/McGhies
34Matt ROZAR   0:31:43  251 Team Las Vegas Cyclery
35581.48Steven LAWYER   Las Vegas, NV0:31:52 340976  265 Mandalay Bay/McGhies
36582.70Justin PEDERSEN   Salt Lake City, UT0:33:19 333718  276 RMCC/Cyclesmith
37Brian BURGENER   0:34:14  279 Bicycles Unlimited
38585.14Jesse CHRISTENSEN   Orem, UT0:34:55 286470  270 Revolution Cafe Rio
39Mike HUGHES   0:35:14  283 
40587.58Stephen RASH   Las Vegas, NV0:35:46 334456  289 Mandalay Bay/McGhies
41588.80Eric DRAPER   Beaver0:36:17 365797  267 
42Jason GOIMARAC   0:37:53  282 
DNFJason MITCHELL     288 Bonneville Cycling Club

Men - Master - 55-99

 Place Points NameCity, StateTime USAC #BibTeam
1367.96James MOREHOUSE (1 - Cat4)   Lasvegas, NV0:37:58 283640  92 FFKR Architects Racing
2382.76Bill PINCKARD (1 - Cat3)   Henderson, NV0:38:01 291027  80 Harmony Homes.com Cycling Team
3397.56Norman FRYE (2 - Cat3)   Salt Lake City, UT0:38:03 260377  85 Ski Utah - Marketstar
4412.36Dirk COWLEY (1 - Cat1)   Salt Lake City, UT0:38:03 7974  96 FFKR Architects Racing
5427.16Charles PALMER (3 - Cat3)   Herriman, UT0:38:03 156926  82 FFKR Architects Racing
6441.96Vic MIERA (2 - Cat4)   Las Vegas, NV0:38:03 280155  95 HarmonyHomes.com Cycling
7456.76Jerald HUNSAKER (4 - Cat3)   Midvale, UT0:38:03 142960  89 Bountiful Mazda Cycling Team
8471.56Joe BRUBAKER (5 - Cat3)   Saltlakecity, UT0:38:03 303618  88 Ski Utah - Marketstar
9486.36Mitch WHITE (3 - Cat4)   Pocatello, ID0:38:08 156373  90 I.C.E./Idaho Kidney Institute
10501.16Curtis INGLE (1 - Cat5)   Las Vegasvegas, NV0:39:01 338546  81 
11515.96Dwight HIBDON (4 - Cat4)   Park City, UT0:39:01 16081  84 FFKR Architects Racing
12530.76Elton REID (5 - Cat4)   Park City, UT0:39:01 192940  86 FFKR Architects Racing
13545.56Gary SIMMONS (6 - Cat3)   Layton, UT0:39:04 199407  87 Bountiful Mazda Cycling Team
14560.36Michael MACDONALD (7 - Cat3)   Salt Lake City, UT0:39:04 146521  91 Bountiful Mazda Cycling Team
15575.16Shannon STORRUD (6 - Cat4)   Park City, UT0:39:04 242162  93 Porcupine Cycling
16589.96Gary POWERS (7 - Cat4)   Draper, UT0:42:53 176500  83 Revolution Cafe Rio
DNFSteve MOSS (Cat4)   St. George Ut 77686  94 FFKR Architects Racing

Men - Junior - 14-Oct

 Place Points NameCity, StateTime USAC #BibTeam
1519.85Kaden SHERWOOD   Queen Creek0:24:18 337536  71 Two Wheel Jones
2543.23Evan CLOUSE   Park City, UT0:24:38 323978  72 Cole Sport
3566.61Noah PUTT   Park City, UT0:26:51 317194  70 Cole Sport
4589.99Josh PETERSON   Bountiful, UT0:29:51 338114  73 KUHL - Rocky Mountain

Women - Cat 1/2/3

 Place Points NameCity, StateTime USAC #BibTeam
1273.35Julie CUTTS (1 - Cat1)   San Ramon, CA0:48:22 236645  175 Velo La Grange
2299.74Nichole WANGSGARD (2 - Cat1)   Cedar City, UT0:48:26 100972  186 Primal/Mapmyride
3326.13Rachel CIESLEWICZ (1 - Cat2)   St. George, UT0:51:12 168989  182 Canyon Bicycles
4352.52Lori HARWARD (2 - Cat2)   Salt Lake City, UT0:53:33 247090  181 Ski Utah - Marketstar
5378.91Toby NISHIKAWA (1 - Cat3)   Willard, UT0:53:33 319428  184 Weber State University
6405.30Megan CLOWARD (2 - Cat3)   Draper, UT0:53:33 308468  183 Revolution Cafe Rio
7431.69Kaytie SCOTT (3 - Cat2)   Ogden, UT0:53:33 311329  177 Simply Mac p/b Bountiful Bicycle
8458.08Alison FRYE (3 - Cat1)   Salt Lake City, UT0:53:33 247526  173 Ski Utah - Marketstar
9484.47Robynn MASTERS (3 - Cat3)   Salt Lake Cty, UT0:53:33 22860  185 Ski Utah - Marketstar
10510.86Kemille GARVIN (4 - Cat2)   Salt Lake City, UT0:53:33 326298  176 Bountiful Mazda Cycling Team
11537.25Laura PATTEN (5 - Cat2)   Park City, UT0:53:40 143579  179 Ski Utah - Marketstar
12563.64Breanne NALDER (6 - Cat2)   Murray, UT0:53:40 263791  171 Ski Utah - Marketstar
13590.03Megan HILL (7 - Cat2)   Saratoga Springs, UT0:53:43 311104  174 Revolution Cafe Rio
DNFNatasha MEINECKE (Cat3)   Las Vegas, NV 296125  180 Colavita/Outback Steakhouse LV
DNFKelly DAILEY (Cat3)   Ogden, UT 207981  178 Bountiful Mazda Cycling Team
DNFBelinda ESCHENWALD (Cat2)   Laguna Niguel, CA 230267  172 Velo La Grange
DNFAmber WOODBURY (Cat3)   West Bountiful, UT 338506  170 Bountiful Mazda Cycling Team

Women - Cat 4

 Place Points NameCity, StateTime USAC #BibTeam
1498.43Camille BRINTON   South Jordan, UT0:33:25 348268  201 Infinite Cycles
2506.06Lisa JOB   Las Vegaslas Vegas, NV0:33:25 364646  210 Colavita/Outback Steakhouse LV
3513.69Jocelyn IRWIN   Vail Co0:33:25 375211  204 University of Denver
4Kellie OLIVER   0:33:28  208 Team Red Rock
5528.95Kaelin WESTBROOK   Henderson, NV0:33:28 305717  205 Colavita/Outback Steakhouse LV
6536.58Jennifer GRUBE   Henderson, NV0:33:28 335138  203 Colavita/Outback Steakhouse LV
7544.21Sara BAKER   Sandy, UT0:33:28 361206  213 Canyon Bicycles
8551.84Heather SMITH   Layton, UT0:33:28 305085  202 Chick-fil-a/Excelerator Sports
9559.47Alicia FINLAYSON   Highland, UT0:33:28 291405  200 Team Dialogue
10567.10Chelsea SMITH   Georgetown, TX0:33:28 361780  211 
11574.73Rosanna SELLERS   North Salt Lake, UT0:33:44 375209  212 JTRCycling
12582.36Katherine RAGLE   Salt Lake City, UT0:34:03 297851  206 Salt Lake Bicycle Company
13589.99Erin KAWAMURA   Blackfoot, ID0:36:38 369654  207 I.C.E./Idaho Kidney Institute
DNFSonja SCHURIG   Sandy, UT 304158  214 Bonneville Cycling Club
DNFKristen CHRISTIANSEN   Henderson, NV 335438  209 Colavita/Outback Steakhouse LV

Women - Master - 35-99

 Place Points NameCity, StateTime USAC #BibTeam
1471.10Keely BROOKS (1 - Cat1)   Las Vegas, NV0:33:23 206886  194 Colavita/Outback Steakhouse LV
2490.92Ellen GUTHRIE (1 - Cat3)   Salt Lake City, UT0:33:28 208087  192 Revolution Cafe Rio
3510.74Jodi ROHOVIT (2 - Cat3)   Salt Lake City, UT0:33:28 309161  193 Primal Utah
4530.56Deborah ROBISON (1 - Cat4)   Lake Havasu City, AZ0:33:28 300781  191 G.S. Jibofo
5550.38Roberta POWERS (3 - Cat3)   Draper, UT0:33:28 264964  190 Revolution Cafe Rio
6Nicole SAXBY   0:34:03  195 Team Red Rock
7590.02Donna INGLE (2 - Cat4)   Las Vegas , NV0:36:34 338828  196 

Women - Junior - 14-Oct

 Place Points NameCity, StateTime USAC #BibTeam
1Katie CLOUSE   Park City, UT0:27:48 332072  78 Cole Sport
2Anna K. CORDOVA   Aurora, CO0:30:57 362492  79 Jet Cycling

Report missing or incorrect license numbers

Volkswagen
Sierra NevadaBonk BreakerShimanoSpyUSACDF
UCI USA Cycling is the official governing body for all disciplines of competitive cycling in the United States. The 501c3, membership-based organization aims both to achieve sustained success in international cycling competition and to grow competitive cycling in America while delivering an exceptional customer experience.
View Children's Online Privacy Protection Policy
US Olympic Committee